createdAt,value
2019-04-01T00:02:07.504Z,99.90
2019-04-01T00:04:36.705Z,99.90
2019-04-01T00:07:05.941Z,99.90
2019-04-01T00:09:35.190Z,99.90
2019-04-01T00:12:04.367Z,99.90
2019-04-01T00:14:33.572Z,99.90
2019-04-01T00:17:02.782Z,99.90
2019-04-01T00:19:31.984Z,99.90
2019-04-01T00:22:01.204Z,99.90
2019-04-01T00:24:30.407Z,99.90
2019-04-01T00:26:59.579Z,99.90
2019-04-01T00:29:28.808Z,99.90
2019-04-01T00:31:58.114Z,99.90
2019-04-01T00:34:27.303Z,99.90
2019-04-01T00:36:56.555Z,99.90
2019-04-01T00:39:25.844Z,99.90
2019-04-01T00:42:06.412Z,99.90
2019-04-01T00:44:35.635Z,99.90
2019-04-01T00:47:04.956Z,99.90
2019-04-01T00:49:34.176Z,99.90
2019-04-01T00:52:03.408Z,99.90
2019-04-01T00:54:32.612Z,99.90
2019-04-01T00:57:01.816Z,99.90
2019-04-01T00:59:31.024Z,99.90
2019-04-01T01:02:00.267Z,99.90
2019-04-01T01:04:29.480Z,99.90
2019-04-01T01:06:58.676Z,99.90
2019-04-01T01:09:27.878Z,99.90
2019-04-01T01:11:57.183Z,99.90
2019-04-01T01:14:26.402Z,99.90
2019-04-01T01:16:55.612Z,99.90
2019-04-01T01:19:24.816Z,99.90
2019-04-01T01:21:56.340Z,99.90
2019-04-01T01:24:25.583Z,99.90
2019-04-01T01:26:54.855Z,99.90
2019-04-01T01:29:24.131Z,99.90
2019-04-01T01:31:53.355Z,99.90
2019-04-01T01:34:22.558Z,99.90
2019-04-01T01:36:51.787Z,99.90
2019-04-01T01:39:21.014Z,99.90
2019-04-01T01:41:50.192Z,99.90
2019-04-01T01:44:19.416Z,99.90
2019-04-01T01:46:48.643Z,99.90
2019-04-01T01:49:17.867Z,99.90
2019-04-01T01:51:47.031Z,99.90
2019-04-01T01:54:16.243Z,99.90
2019-04-01T01:56:45.474Z,99.90
2019-04-01T01:59:14.668Z,99.90
2019-04-01T02:01:43.955Z,99.90
2019-04-01T02:04:13.192Z,99.90
2019-04-01T02:06:42.388Z,99.90
2019-04-01T02:09:11.622Z,99.90
2019-04-01T02:11:40.804Z,99.90
2019-04-01T02:14:09.997Z,99.90
2019-04-01T02:16:39.227Z,99.90
2019-04-01T02:19:08.545Z,99.90
2019-04-01T02:21:37.763Z,99.90
2019-04-01T02:24:06.969Z,99.90
2019-04-01T02:26:36.184Z,99.90
2019-04-01T02:29:05.400Z,99.90
2019-04-01T02:31:34.619Z,99.90
2019-04-01T02:34:03.833Z,99.90
2019-04-01T02:36:33.050Z,99.90
2019-04-01T02:39:02.252Z,99.90
2019-04-01T02:41:31.419Z,99.90
2019-04-01T02:44:00.657Z,99.90
2019-04-01T02:46:29.887Z,99.90
2019-04-01T02:48:59.088Z,99.90
2019-04-01T02:51:28.288Z,99.90
2019-04-01T02:53:57.509Z,99.90
2019-04-01T02:56:26.720Z,99.90
2019-04-01T02:58:55.924Z,99.90
2019-04-01T03:01:25.131Z,99.90
2019-04-01T03:03:54.332Z,99.90
2019-04-01T03:06:23.607Z,99.90
2019-04-01T03:08:52.833Z,99.90
2019-04-01T03:11:22.028Z,99.90
2019-04-01T03:13:51.435Z,99.90
2019-04-01T03:16:20.709Z,99.90
2019-04-01T03:18:49.915Z,99.90
2019-04-01T03:21:19.202Z,99.90
2019-04-01T03:23:48.401Z,99.90
2019-04-01T03:26:17.784Z,99.90
2019-04-01T03:28:46.975Z,99.90
2019-04-01T03:31:16.260Z,99.90
2019-04-01T03:33:45.629Z,99.90
2019-04-01T03:36:14.836Z,99.90
2019-04-01T03:38:44.056Z,99.90
2019-04-01T03:41:13.342Z,99.90
2019-04-01T03:43:42.532Z,99.90
2019-04-01T03:46:11.764Z,99.90
2019-04-01T03:48:40.963Z,99.90
2019-04-01T03:51:10.189Z,99.90
2019-04-01T03:53:39.378Z,99.90
2019-04-01T03:56:08.684Z,99.90
2019-04-01T03:58:37.896Z,99.90
2019-04-01T04:01:07.083Z,99.90
2019-04-01T04:03:36.303Z,99.90
2019-04-01T04:06:05.503Z,99.90
2019-04-01T04:08:34.747Z,99.90
2019-04-01T04:11:04.516Z,99.90
2019-04-01T04:13:33.833Z,99.90
2019-04-01T04:16:03.538Z,99.90
2019-04-01T04:18:32.726Z,99.90
2019-04-01T04:21:01.923Z,99.90
2019-04-01T04:23:31.133Z,99.90
2019-04-01T04:26:00.422Z,99.90
2019-04-01T04:28:29.661Z,99.90
2019-04-01T04:30:58.860Z,99.90
2019-04-01T04:33:28.051Z,99.90
2019-04-01T04:35:57.356Z,99.90
2019-04-01T04:38:26.661Z,99.90
2019-04-01T04:40:55.864Z,99.90
2019-04-01T04:43:25.189Z,99.90
2019-04-01T04:45:54.586Z,99.90
2019-04-01T04:48:23.932Z,99.90
2019-04-01T04:50:53.232Z,99.90
2019-04-01T04:53:22.456Z,99.90
2019-04-01T04:55:51.709Z,99.90
2019-04-01T04:58:20.927Z,99.90
2019-04-01T05:00:50.124Z,99.90
2019-04-01T05:03:19.401Z,99.90
2019-04-01T05:05:48.624Z,99.90
2019-04-01T05:08:17.916Z,99.90
2019-04-01T05:10:47.111Z,99.90
2019-04-01T05:13:16.715Z,99.90
2019-04-01T05:15:49.207Z,99.90
2019-04-01T05:18:18.495Z,99.90
2019-04-01T05:20:48.701Z,99.90
2019-04-01T05:23:19.708Z,99.90
2019-04-01T05:25:50.069Z,99.90
2019-04-01T05:28:19.475Z,99.90
2019-04-01T05:30:51.299Z,99.90
2019-04-01T05:33:22.699Z,99.90
2019-04-01T05:35:51.963Z,99.90
2019-04-01T05:38:21.314Z,99.90
2019-04-01T05:40:50.504Z,99.90
2019-04-01T05:43:19.716Z,99.90
2019-04-01T05:45:48.916Z,99.90
2019-04-01T05:48:18.355Z,99.90
2019-04-01T05:50:47.672Z,99.90
2019-04-01T05:53:16.859Z,99.90
2019-04-01T05:55:46.304Z,99.90
2019-04-01T05:58:15.574Z,99.90
2019-04-01T06:00:49.113Z,99.90
2019-04-01T06:03:18.331Z,99.90
2019-04-01T06:05:47.550Z,99.90
2019-04-01T06:08:17.948Z,99.90
2019-04-01T06:10:47.366Z,99.90
2019-04-01T06:13:16.695Z,99.90
2019-04-01T06:15:45.912Z,99.90
2019-04-01T06:18:15.220Z,99.90
2019-04-01T06:20:44.460Z,99.90
2019-04-01T06:23:13.679Z,99.90
2019-04-01T06:25:42.975Z,99.90
2019-04-01T06:28:12.635Z,99.90
2019-04-01T06:30:41.867Z,99.90
2019-04-01T06:33:11.068Z,99.90
2019-04-01T06:35:40.297Z,99.90
2019-04-01T06:38:09.597Z,99.90
2019-04-01T06:40:38.831Z,99.90
2019-04-01T06:43:08.045Z,99.90
2019-04-01T06:45:37.356Z,99.90
2019-04-01T06:48:06.628Z,99.90
2019-04-01T06:50:35.800Z,99.90
2019-04-01T06:53:05.004Z,99.90
2019-04-01T06:55:34.225Z,99.90
2019-04-01T06:58:03.514Z,99.90
2019-04-01T07:00:32.695Z,99.90
2019-04-01T07:03:01.903Z,99.90
2019-04-01T07:05:31.221Z,99.90
2019-04-01T07:08:00.515Z,99.90
2019-04-01T07:10:29.723Z,99.90
2019-04-01T07:12:59.319Z,99.90
2019-04-01T07:15:28.955Z,99.90
2019-04-01T07:17:58.163Z,99.90
2019-04-01T07:20:27.375Z,99.90
2019-04-01T07:22:56.651Z,99.90
2019-04-01T07:25:25.932Z,99.90
2019-04-01T07:27:55.203Z,99.90
2019-04-01T07:30:24.432Z,99.90
2019-04-01T07:32:53.619Z,99.90
2019-04-01T07:35:22.844Z,99.90
2019-04-01T07:37:52.730Z,97.40
2019-04-01T07:40:21.967Z,94.70
2019-04-01T07:42:51.147Z,91.90
2019-04-01T07:45:20.579Z,89.30
2019-04-01T07:47:51.628Z,84.40
2019-04-01T07:50:20.669Z,79.70
2019-04-01T07:52:49.877Z,70.00
2019-04-01T07:55:19.095Z,65.60
2019-04-01T07:57:48.337Z,62.90
2019-04-01T08:00:17.855Z,59.70
2019-04-01T08:02:49.009Z,58.50
2019-04-01T08:05:18.488Z,56.70
2019-04-01T08:07:47.687Z,55.20
2019-04-01T08:10:17.449Z,54.20
2019-04-01T08:12:46.717Z,53.60
2019-04-01T08:15:15.924Z,52.10
2019-04-01T08:17:45.132Z,50.40
2019-04-01T08:20:14.944Z,50.60
2019-04-01T08:22:44.223Z,49.60
2019-04-01T08:25:13.364Z,47.50
2019-04-01T08:27:42.608Z,47.40
2019-04-01T08:30:13.051Z,47.50
2019-04-01T08:32:42.275Z,46.30
2019-04-01T08:35:11.464Z,45.90
2019-04-01T08:37:40.870Z,45.90
2019-04-01T08:40:10.987Z,44.40
2019-04-01T08:42:40.187Z,44.60
2019-04-01T08:45:10.223Z,43.90
2019-04-01T08:47:39.446Z,43.80
2019-04-01T08:50:09.111Z,44.10
2019-04-01T08:52:38.435Z,43.80
2019-04-01T08:55:07.755Z,43.50
2019-04-01T08:57:36.969Z,42.50
2019-04-01T09:00:06.792Z,42.10
2019-04-01T09:02:36.031Z,42.40
2019-04-01T09:05:05.851Z,40.90
2019-04-01T09:07:35.346Z,39.70
2019-04-01T09:10:05.640Z,39.70
2019-04-01T09:12:35.849Z,40.30
2019-04-01T09:15:06.076Z,40.10
2019-04-01T09:17:35.297Z,40.40
2019-04-01T09:20:05.681Z,39.40
2019-04-01T09:22:34.907Z,39.60
2019-04-01T09:25:04.319Z,39.10
2019-04-01T09:27:33.541Z,39.30
2019-04-01T09:30:02.844Z,38.80
2019-04-01T09:32:32.059Z,38.90
2019-04-01T09:35:01.281Z,39.30
2019-04-01T09:37:30.484Z,38.90
2019-04-01T09:39:59.718Z,39.40
2019-04-01T09:42:29.075Z,39.50
2019-04-01T09:44:58.367Z,39.20
2019-04-01T09:47:27.632Z,38.50
2019-04-01T09:49:56.837Z,38.60
2019-04-01T09:52:26.039Z,38.60
2019-04-01T09:54:55.238Z,37.70
2019-04-01T09:57:24.442Z,37.80
2019-04-01T09:59:53.653Z,38.10
2019-04-01T10:02:31.875Z,38.00
2019-04-01T10:04:53.772Z,36.90
2019-04-01T10:07:23.106Z,37.70
2019-04-01T10:09:52.340Z,38.40
2019-04-01T10:12:21.563Z,39.00
2019-04-01T10:14:50.767Z,38.40
2019-04-01T10:17:19.979Z,38.00
2019-04-01T10:19:49.172Z,38.60
2019-04-01T10:22:18.388Z,38.50
2019-04-01T10:24:47.615Z,38.80
2019-04-01T10:27:16.834Z,39.10
2019-04-01T10:29:46.019Z,38.80
2019-04-01T10:32:15.319Z,39.30
2019-04-01T10:34:44.518Z,40.00
2019-04-01T10:37:13.805Z,40.10
2019-04-01T10:39:42.956Z,39.80
2019-04-01T10:42:12.205Z,39.30
2019-04-01T10:44:41.401Z,39.20
2019-04-01T10:47:10.745Z,39.10
2019-04-01T10:49:40.029Z,39.20
2019-04-01T10:52:09.235Z,39.40
2019-04-01T10:54:38.506Z,39.30
2019-04-01T10:57:07.881Z,39.40
2019-04-01T10:59:37.227Z,39.00
2019-04-01T11:02:06.396Z,38.60
2019-04-01T11:04:35.655Z,38.60
2019-04-01T11:07:04.823Z,38.00
2019-04-01T11:09:38.571Z,38.30
2019-04-01T11:12:05.359Z,38.80
2019-04-01T11:14:34.627Z,38.50
2019-04-01T11:17:04.648Z,38.40
2019-04-01T11:19:34.023Z,38.50
2019-04-01T11:22:03.954Z,38.40
2019-04-01T11:24:33.445Z,38.50
2019-04-01T11:27:02.659Z,39.00
2019-04-01T11:29:31.943Z,39.70
2019-04-01T11:32:01.191Z,40.10
2019-04-01T11:34:30.367Z,40.80
2019-04-01T11:36:59.599Z,40.10
2019-04-01T11:39:28.808Z,40.50
2019-04-01T11:42:01.257Z,40.60
2019-04-01T11:44:28.925Z,40.80
2019-04-01T11:46:58.233Z,40.80
2019-04-01T11:49:28.485Z,41.20
2019-04-01T11:51:57.928Z,41.40
2019-04-01T11:54:27.120Z,41.70
2019-04-01T11:56:58.055Z,41.90
2019-04-01T11:59:27.410Z,41.60
2019-04-01T12:01:56.692Z,41.40
2019-04-01T12:04:26.103Z,41.20
2019-04-01T12:06:55.436Z,41.80
2019-04-01T12:09:24.716Z,41.30
2019-04-01T12:11:53.882Z,40.30
2019-04-01T12:14:23.109Z,40.00
2019-04-01T12:16:52.424Z,40.60
2019-04-01T12:19:21.707Z,41.30
2019-04-01T12:21:50.943Z,41.70
2019-04-01T12:24:20.210Z,41.90
2019-04-01T12:26:49.458Z,42.10
2019-04-01T12:29:18.647Z,41.90
2019-04-01T12:31:47.920Z,41.60
2019-04-01T12:34:17.704Z,41.80
2019-04-01T12:36:46.960Z,41.90
2019-04-01T12:39:16.170Z,42.20
2019-04-01T12:41:45.347Z,40.90
2019-04-01T12:44:14.527Z,40.00
2019-04-01T12:46:43.769Z,39.10
2019-04-01T12:49:12.968Z,38.60
2019-04-01T12:51:42.188Z,38.00
2019-04-01T12:54:11.392Z,38.00
2019-04-01T12:56:40.632Z,38.10
2019-04-01T12:59:09.831Z,38.00
2019-04-01T13:01:39.044Z,37.60
2019-04-01T13:04:08.257Z,36.90
2019-04-01T13:06:37.479Z,36.90
2019-04-01T13:09:07.975Z,37.00
2019-04-01T13:11:38.506Z,36.30
2019-04-01T13:14:08.393Z,35.10
2019-04-01T13:16:37.591Z,34.70
2019-04-01T13:19:06.812Z,35.40
2019-04-01T13:21:38.080Z,35.60
2019-04-01T13:24:07.307Z,36.20
2019-04-01T13:26:36.512Z,36.40
2019-04-01T13:29:05.736Z,36.40
2019-04-01T13:31:34.940Z,36.50
2019-04-01T13:34:04.278Z,36.50
2019-04-01T13:36:33.479Z,35.90
2019-04-01T13:39:05.706Z,36.00
2019-04-01T13:41:42.355Z,36.10
2019-04-01T13:44:08.648Z,36.60
2019-04-01T13:46:36.752Z,37.20
2019-04-01T13:49:05.991Z,36.80
2019-04-01T13:51:35.235Z,37.30
2019-04-01T13:54:08.966Z,37.70
2019-04-01T13:56:35.764Z,35.80
2019-04-01T13:59:05.440Z,36.00
2019-04-01T14:01:35.039Z,35.80
2019-04-01T14:04:04.228Z,35.70
2019-04-01T14:06:33.464Z,35.40
2019-04-01T14:09:04.633Z,35.60
2019-04-01T14:11:34.223Z,35.70
2019-04-01T14:14:04.009Z,34.90
2019-04-01T14:16:33.357Z,35.30
2019-04-01T14:19:02.628Z,35.40
2019-04-01T14:21:31.831Z,35.30
2019-04-01T14:24:01.440Z,35.70
2019-04-01T14:26:31.059Z,36.30
2019-04-01T14:29:00.287Z,36.40
2019-04-01T14:31:29.472Z,36.60
2019-04-01T14:33:58.894Z,37.30
2019-04-01T14:36:28.701Z,38.30
2019-04-01T14:38:57.918Z,39.00
2019-04-01T14:41:27.103Z,39.30
2019-04-01T14:43:57.370Z,39.30
2019-04-01T14:46:26.787Z,39.00
2019-04-01T14:48:56.117Z,38.90
2019-04-01T14:51:25.443Z,38.50
2019-04-01T14:53:54.660Z,37.70
2019-04-01T14:56:23.851Z,37.30
2019-04-01T14:58:53.284Z,37.00
2019-04-01T15:01:22.535Z,36.10
2019-04-01T15:03:51.802Z,35.60
2019-04-01T15:06:20.987Z,35.80
2019-04-01T15:08:50.723Z,35.60
2019-04-01T15:11:20.725Z,34.70
2019-04-01T15:13:50.504Z,34.90
2019-04-01T15:16:20.385Z,35.40
2019-04-01T15:18:50.716Z,35.40
2019-04-01T15:21:21.807Z,35.10
2019-04-01T15:23:53.439Z,34.60
2019-04-01T15:26:23.203Z,34.20
2019-04-01T15:28:52.590Z,34.60
2019-04-01T15:31:23.337Z,35.00
2019-04-01T15:33:53.236Z,35.20
2019-04-01T15:36:23.217Z,35.00
2019-04-01T15:38:53.498Z,35.20
2019-04-01T15:41:26.677Z,35.80
2019-04-01T15:43:55.360Z,35.90
2019-04-01T15:46:25.122Z,36.50
2019-04-01T15:48:54.392Z,36.80
2019-04-01T15:51:23.685Z,37.20
2019-04-01T15:53:52.883Z,37.50
2019-04-01T15:56:22.120Z,37.50
2019-04-01T15:58:51.347Z,37.30
2019-04-01T16:01:20.549Z,37.40
2019-04-01T16:03:49.770Z,37.30
2019-04-01T16:06:18.995Z,37.10
2019-04-01T16:08:48.247Z,37.20
2019-04-01T16:11:18.173Z,37.50
2019-04-01T16:13:48.127Z,38.20
2019-04-01T16:16:17.326Z,39.00
2019-04-01T16:18:46.603Z,39.20
2019-04-01T16:21:15.836Z,38.80
2019-04-01T16:23:45.049Z,38.00
2019-04-01T16:26:14.342Z,37.60
2019-04-01T16:28:43.659Z,37.70
2019-04-01T16:31:12.939Z,38.10
2019-04-01T16:33:42.136Z,38.80
2019-04-01T16:36:11.492Z,39.30
2019-04-01T16:38:40.792Z,39.00
2019-04-01T16:41:10.125Z,39.00
2019-04-01T16:43:39.315Z,39.10
2019-04-01T16:46:08.700Z,39.00
2019-04-01T16:48:38.422Z,39.40
2019-04-01T16:51:08.073Z,39.50
2019-04-01T16:53:37.345Z,39.70
2019-04-01T16:56:06.563Z,40.20
2019-04-01T16:58:35.780Z,40.80
2019-04-01T17:01:04.994Z,41.40
2019-04-01T17:03:34.324Z,41.30
2019-04-01T17:06:03.578Z,41.50
2019-04-01T17:08:32.781Z,42.00
2019-04-01T17:11:02.164Z,42.40
2019-04-01T17:13:31.581Z,42.30
2019-04-01T17:16:01.703Z,42.20
2019-04-01T17:18:31.691Z,42.60
2019-04-01T17:21:00.912Z,42.30
2019-04-01T17:23:30.771Z,42.50
2019-04-01T17:26:00.356Z,43.00
2019-04-01T17:28:29.562Z,43.50
2019-04-01T17:30:58.792Z,43.50
2019-04-01T17:33:27.977Z,43.40
2019-04-01T17:35:57.232Z,43.60
2019-04-01T17:38:26.427Z,44.20
2019-04-01T17:40:55.684Z,44.70
2019-04-01T17:43:24.857Z,45.10
2019-04-01T17:45:57.207Z,45.50
2019-04-01T17:48:26.431Z,45.70
2019-04-01T17:50:55.640Z,45.90
2019-04-01T17:53:24.837Z,46.30
2019-04-01T17:55:54.050Z,46.70
2019-04-01T17:58:23.247Z,47.10
2019-04-01T18:00:57.183Z,47.50
2019-04-01T18:03:26.395Z,47.80
2019-04-01T18:05:55.612Z,48.30
2019-04-01T18:08:24.831Z,48.30
2019-04-01T18:10:54.063Z,48.40
2019-04-01T18:13:23.246Z,48.60
2019-04-01T18:15:52.502Z,48.70
2019-04-01T18:18:27.234Z,49.10
2019-04-01T18:20:52.566Z,49.50
2019-04-01T18:23:22.142Z,49.60
2019-04-01T18:25:51.601Z,49.80
2019-04-01T18:28:20.850Z,50.10
2019-04-01T18:30:50.136Z,50.40
2019-04-01T18:33:19.995Z,50.70
2019-04-01T18:35:49.412Z,51.00
2019-04-01T18:38:18.746Z,51.50
2019-04-01T18:40:47.931Z,51.60
2019-04-01T18:43:17.209Z,51.90
2019-04-01T18:45:46.559Z,52.20
2019-04-01T18:48:15.847Z,52.60
2019-04-01T18:50:45.095Z,53.00
2019-04-01T18:53:14.415Z,53.30
2019-04-01T18:55:43.651Z,53.70
2019-04-01T18:58:12.874Z,53.90
2019-04-01T19:00:42.112Z,54.10
2019-04-01T19:03:11.287Z,54.40
2019-04-01T19:05:40.515Z,54.70
2019-04-01T19:08:09.699Z,55.00
2019-04-01T19:10:39.522Z,55.20
2019-04-01T19:13:12.382Z,55.50
2019-04-01T19:15:41.974Z,55.70
2019-04-01T19:18:11.262Z,56.00
2019-04-01T19:20:55.356Z,56.30
2019-04-01T19:23:11.805Z,56.50
2019-04-01T19:25:41.026Z,56.90
2019-04-01T19:28:10.392Z,57.20
2019-04-01T19:30:39.602Z,57.40
2019-04-01T19:33:09.056Z,57.60
2019-04-01T19:35:38.614Z,57.90
2019-04-01T19:38:07.845Z,58.20
2019-04-01T19:40:37.279Z,58.40
2019-04-01T19:43:06.499Z,58.70
2019-04-01T19:45:35.995Z,59.00
2019-04-01T19:48:05.322Z,59.20
2019-04-01T19:50:34.541Z,59.30
2019-04-01T19:53:03.801Z,59.60
2019-04-01T19:55:34.227Z,59.80
2019-04-01T19:58:05.111Z,60.00
2019-04-01T20:00:34.687Z,60.30
2019-04-01T20:03:03.965Z,60.80
2019-04-01T20:05:33.205Z,61.00
2019-04-01T20:08:02.433Z,61.20
2019-04-01T20:10:31.624Z,61.60
2019-04-01T20:13:00.861Z,61.70
2019-04-01T20:15:30.163Z,62.20
2019-04-01T20:17:59.370Z,62.50
2019-04-01T20:20:28.593Z,62.80
2019-04-01T20:22:58.156Z,63.00
2019-04-01T20:25:27.428Z,63.40
2019-04-01T20:27:56.662Z,63.80
2019-04-01T20:30:25.862Z,64.00
2019-04-01T20:32:55.061Z,64.30
2019-04-01T20:35:24.292Z,64.50
2019-04-01T20:37:53.503Z,64.80
2019-04-01T20:40:24.093Z,65.00
2019-04-01T20:42:53.444Z,65.30
2019-04-01T20:45:22.659Z,65.40
2019-04-01T20:47:51.901Z,65.80
2019-04-01T20:50:21.221Z,65.90
2019-04-01T20:52:50.747Z,66.00
2019-04-01T20:55:20.096Z,66.50
2019-04-01T20:57:49.336Z,66.70
2019-04-01T21:00:19.051Z,66.70
2019-04-01T21:02:48.287Z,66.80
2019-04-01T21:05:17.811Z,66.80
2019-04-01T21:07:47.507Z,67.00
2019-04-01T21:10:17.506Z,67.90
2019-04-01T21:12:46.777Z,67.30
2019-04-01T21:15:16.092Z,67.20
2019-04-01T21:17:45.286Z,67.30
2019-04-01T21:20:14.497Z,67.50
2019-04-01T21:22:43.827Z,67.70
2019-04-01T21:25:13.166Z,68.00
2019-04-01T21:27:42.347Z,68.10
2019-04-01T21:30:12.947Z,68.30
2019-04-01T21:32:42.240Z,68.60
2019-04-01T21:35:11.914Z,68.70
2019-04-01T21:37:41.141Z,69.10
2019-04-01T21:40:10.646Z,69.40
2019-04-01T21:42:39.887Z,69.50
2019-04-01T21:45:09.424Z,69.90
2019-04-01T21:47:38.792Z,70.00
2019-04-01T21:50:08.355Z,70.20
2019-04-01T21:52:37.591Z,70.50
2019-04-01T21:55:08.297Z,70.80
2019-04-01T21:57:37.768Z,71.90
2019-04-01T22:00:08.927Z,71.50
2019-04-01T22:02:38.416Z,71.90
2019-04-01T22:05:10.342Z,72.00
2019-04-01T22:07:39.999Z,72.00
2019-04-01T22:10:09.827Z,72.30
2019-04-01T22:12:39.011Z,72.60
2019-04-01T22:15:08.532Z,72.80
2019-04-01T22:17:37.851Z,73.20
2019-04-01T22:20:07.554Z,73.60
2019-04-01T22:22:37.454Z,73.90
2019-04-01T22:25:06.923Z,74.30
2019-04-01T22:27:36.146Z,74.50
2019-04-01T22:30:07.054Z,74.70
2019-04-01T22:32:36.246Z,74.90
2019-04-01T22:35:05.649Z,75.40
2019-04-01T22:37:35.064Z,75.50
2019-04-01T22:40:04.995Z,75.90
2019-04-01T22:42:34.264Z,76.20
2019-04-01T22:45:03.544Z,76.60
2019-04-01T22:47:32.856Z,76.80
2019-04-01T22:50:02.186Z,77.80
2019-04-01T22:52:31.368Z,77.30
2019-04-01T22:55:00.571Z,77.70
2019-04-01T22:57:29.839Z,78.00
2019-04-01T22:59:59.055Z,78.40
2019-04-01T23:02:28.371Z,78.80
2019-04-01T23:04:57.556Z,79.00
2019-04-01T23:07:26.766Z,79.30
2019-04-01T23:09:55.966Z,79.90
2019-04-01T23:12:25.180Z,80.30
2019-04-01T23:14:54.415Z,80.60
2019-04-01T23:17:23.611Z,80.90
2019-04-01T23:19:52.834Z,81.00
2019-04-01T23:22:22.126Z,81.50
2019-04-01T23:24:51.331Z,81.80
2019-04-01T23:27:20.549Z,82.20
2019-04-01T23:29:51.095Z,81.90
2019-04-01T23:32:21.002Z,83.40
2019-04-01T23:34:50.215Z,83.20
2019-04-01T23:37:19.451Z,83.80
2019-04-01T23:39:48.623Z,84.40
2019-04-01T23:42:17.745Z,84.90
2019-04-01T23:44:46.924Z,85.20
2019-04-01T23:47:16.178Z,85.60
2019-04-01T23:49:45.360Z,86.00
2019-04-01T23:52:14.562Z,86.30
2019-04-01T23:54:43.805Z,86.50
2019-04-01T23:57:13.096Z,86.90
2019-04-01T23:59:42.302Z,87.30
